createdAt,value
2022-09-01T00:00:30.683Z,20433.75
2022-09-01T00:02:59.110Z,20468.31
2022-09-01T00:05:28.594Z,20476.44
2022-09-01T00:07:56.692Z,20478.47
2022-09-01T00:10:24.964Z,20470.34
2022-09-01T00:12:53.344Z,20543.53
2022-09-01T00:15:21.425Z,20484.56
2022-09-01T00:17:49.741Z,20508.97
2022-09-01T00:20:20.513Z,20539.47
2022-09-01T00:22:50.759Z,20484.56
2022-09-01T00:25:20.684Z,20515.06
2022-09-01T00:27:49.737Z,20551.66
2022-09-01T00:30:18.324Z,20498.81
2022-09-01T00:32:46.891Z,20500.84
2022-09-01T00:35:16.253Z,20533.34
2022-09-01T00:37:44.818Z,20490.66
2022-09-01T00:40:17.370Z,20478.47
2022-09-01T00:42:46.172Z,20466.28
2022-09-01T00:45:14.456Z,20472.38
2022-09-01T00:47:43.742Z,20435.78
2022-09-01T00:50:15.940Z,20452.06
2022-09-01T00:52:51.853Z,20443.91
2022-09-01T00:55:26.904Z,20435.78
2022-09-01T00:57:55.123Z,20435.78
2022-09-01T01:00:27.601Z,20407.34
2022-09-01T01:02:56.851Z,20409.38
2022-09-01T01:05:33.064Z,20370.75
2022-09-01T01:08:04.287Z,20362.63
2022-09-01T01:10:38.956Z,20397.16
2022-09-01T01:13:15.551Z,20376.84
2022-09-01T01:15:44.874Z,20340.25
2022-09-01T01:18:13.805Z,20344.31
2022-09-01T01:21:00.945Z,20330.09
2022-09-01T01:23:39.012Z,20344.31
2022-09-01T01:26:11.431Z,20291.47
2022-09-01T01:28:44.152Z,20297.56
2022-09-01T01:31:16.365Z,20293.50
2022-09-01T01:33:47.734Z,20281.31
2022-09-01T01:36:21.548Z,20303.66
2022-09-01T01:38:51.024Z,20287.41
2022-09-01T01:41:22.002Z,20275.22
2022-09-01T01:43:51.025Z,20263.00
2022-09-01T01:46:20.718Z,20293.50
2022-09-01T01:48:52.428Z,20236.59
2022-09-01T01:51:24.987Z,20240.66
2022-09-01T01:53:53.596Z,20248.78
2022-09-01T01:56:25.661Z,20291.47
2022-09-01T01:58:54.689Z,20252.84
2022-09-01T02:01:24.387Z,20252.84
2022-09-01T02:03:54.781Z,20248.78
2022-09-01T02:06:25.590Z,20242.69
2022-09-01T02:08:56.627Z,20220.34
2022-09-01T02:11:26.635Z,20220.34
2022-09-01T02:13:56.316Z,20236.59
2022-09-01T02:16:26.112Z,20212.19
2022-09-01T02:18:54.460Z,20204.06
2022-09-01T02:21:27.121Z,20224.41
2022-09-01T02:24:00.345Z,20171.56
2022-09-01T02:26:33.320Z,20159.34
2022-09-01T02:29:05.137Z,20163.41
2022-09-01T02:31:35.494Z,20155.28
2022-09-01T02:34:04.574Z,20165.44
2022-09-01T02:36:35.101Z,20139.03
2022-09-01T02:39:03.206Z,20149.19
2022-09-01T02:41:34.614Z,20108.53
2022-09-01T02:44:04.124Z,20147.16
2022-09-01T02:46:32.299Z,20114.63
2022-09-01T02:49:01.575Z,20130.91
2022-09-01T02:51:31.758Z,20100.41
2022-09-01T02:54:00.595Z,20106.50
2022-09-01T02:56:28.849Z,20090.25
2022-09-01T02:59:01.715Z,20098.38
2022-09-01T03:01:34.021Z,20088.22
2022-09-01T03:04:05.635Z,20041.47
2022-09-01T03:06:36.440Z,20086.19
2022-09-01T03:09:08.585Z,20041.47
2022-09-01T03:11:42.961Z,20080.09
2022-09-01T03:14:13.201Z,20031.31
2022-09-01T03:16:42.293Z,20067.88
2022-09-01T03:19:12.097Z,20076.03
2022-09-01T03:21:43.317Z,20019.13
2022-09-01T03:24:15.154Z,20004.88
2022-09-01T03:26:45.493Z,20043.50
2022-09-01T03:29:20.078Z,20002.84
2022-09-01T03:31:48.530Z,19994.72
2022-09-01T03:34:20.721Z,20013.00
2022-09-01T03:36:51.095Z,19996.75
2022-09-01T03:39:20.047Z,19986.59
2022-09-01T03:41:48.419Z,20021.16
2022-09-01T03:44:18.056Z,19952.03
2022-09-01T03:46:46.697Z,19943.91
2022-09-01T03:49:15.511Z,19976.44
2022-09-01T03:51:45.011Z,19964.25
2022-09-01T03:54:14.296Z,19956.09
2022-09-01T03:56:43.799Z,19950.00
2022-09-01T03:59:16.761Z,19970.34
2022-09-01T04:01:47.577Z,19935.78
2022-09-01T04:04:16.617Z,19941.88
2022-09-01T04:06:46.760Z,19939.84
2022-09-01T04:09:15.429Z,19931.72
2022-09-01T04:11:46.257Z,19923.59
2022-09-01T04:14:15.275Z,19927.66
2022-09-01T04:17:03.904Z,19915.47
2022-09-01T04:19:38.444Z,19919.53
2022-09-01T04:22:13.430Z,19929.69
2022-09-01T04:24:45.960Z,19925.63
2022-09-01T04:27:18.038Z,19905.28
2022-09-01T04:29:46.775Z,19915.47
2022-09-01T04:32:16.961Z,19899.19
2022-09-01T04:34:45.047Z,19943.91
2022-09-01T04:37:18.182Z,19917.50
2022-09-01T04:39:55.747Z,19899.19
2022-09-01T04:42:29.063Z,19956.09
2022-09-01T04:44:59.908Z,19884.97
2022-09-01T04:47:36.298Z,19947.97
2022-09-01T04:50:14.175Z,19919.53
2022-09-01T04:52:45.771Z,19933.75
2022-09-01T04:55:18.403Z,19911.41
2022-09-01T04:57:49.528Z,19884.97
2022-09-01T05:00:24.374Z,19937.81
2022-09-01T05:03:03.387Z,19919.53
2022-09-01T05:05:42.462Z,19947.97
2022-09-01T05:08:14.494Z,19919.53
2022-09-01T05:10:56.556Z,19913.44
2022-09-01T05:13:27.316Z,19972.38
2022-09-01T05:16:04.082Z,19968.31
2022-09-01T05:18:34.141Z,19978.47
2022-09-01T05:21:11.125Z,19945.94
2022-09-01T05:23:40.641Z,19984.56
2022-09-01T05:26:16.913Z,19984.56
2022-09-01T05:28:45.668Z,19962.19
2022-09-01T05:31:14.005Z,20021.16
2022-09-01T05:33:46.016Z,19968.31
2022-09-01T05:36:17.880Z,19982.53
2022-09-01T05:38:48.046Z,20000.81
2022-09-01T05:41:20.921Z,19980.50
2022-09-01T05:43:57.782Z,19980.50
2022-09-01T05:46:30.016Z,20035.38
2022-09-01T05:48:59.735Z,20037.41
2022-09-01T05:51:44.372Z,20074.00
2022-09-01T05:54:15.172Z,20074.00
2022-09-01T05:56:44.888Z,20114.63
2022-09-01T05:59:23.071Z,20132.94
2022-09-01T06:01:53.186Z,20171.56
2022-09-01T06:04:25.379Z,20240.66
2022-09-01T06:07:05.776Z,20269.13
2022-09-01T06:09:39.394Z,20352.44
2022-09-01T06:12:09.133Z,20334.16
2022-09-01T06:14:37.398Z,20382.94
2022-09-01T06:17:06.662Z,20397.16
2022-09-01T06:19:37.383Z,20456.13
2022-09-01T06:22:07.988Z,20425.63
2022-09-01T06:24:36.824Z,20443.91
2022-09-01T06:27:09.746Z,20527.25
2022-09-01T06:29:39.712Z,20515.06
2022-09-01T06:32:10.466Z,20555.72
2022-09-01T06:34:44.535Z,20567.91
2022-09-01T06:37:13.248Z,20606.53
2022-09-01T06:39:41.570Z,20689.88
2022-09-01T06:42:13.748Z,20657.34
2022-09-01T06:44:41.867Z,20712.25
2022-09-01T06:47:10.894Z,20775.25
2022-09-01T06:49:41.087Z,20769.16
2022-09-01T06:52:09.565Z,20838.28
2022-09-01T06:54:39.568Z,20954.16
2022-09-01T06:59:56.176Z,20919.59
2022-09-01T07:02:27.189Z,20966.34
2022-09-01T07:04:57.219Z,20994.81
2022-09-01T07:10:21.212Z,21053.78
2022-09-01T07:13:06.623Z,21078.16
2022-09-01T07:18:27.686Z,20992.78
2022-09-01T07:24:07.835Z,20933.81
2022-09-01T07:26:36.167Z,20885.03
2022-09-01T07:29:07.371Z,20828.13
2022-09-01T07:34:46.272Z,20759.00
2022-09-01T07:38:47.344Z,20761.03
2022-09-01T07:45:31.388Z,20708.19
2022-09-01T07:48:06.523Z,20681.75
2022-09-01T07:51:34.597Z,20679.72
2022-09-01T07:53:31.431Z,20732.56
2022-09-01T07:56:02.437Z,20781.38
2022-09-01T07:58:31.424Z,20740.69
2022-09-01T08:01:02.634Z,20785.44
2022-09-01T08:03:32.014Z,20769.16
2022-09-01T08:06:06.976Z,20809.81
2022-09-01T08:08:40.559Z,20822.03
2022-09-01T08:11:09.394Z,20834.22
2022-09-01T08:13:41.910Z,20836.25
2022-09-01T08:16:19.285Z,20817.94
2022-09-01T08:18:49.981Z,20868.78
2022-09-01T08:21:22.132Z,20870.81
2022-09-01T08:23:53.733Z,20878.94
2022-09-01T08:26:25.076Z,20927.72
2022-09-01T08:28:55.488Z,20950.09
2022-09-01T08:31:30.526Z,20990.75
2022-09-01T08:34:00.014Z,20838.28
2022-09-01T08:36:28.106Z,20836.25
2022-09-01T08:38:57.567Z,20836.25
2022-09-01T08:41:46.415Z,20846.41
2022-09-01T08:44:32.592Z,20838.28
2022-09-01T08:47:07.031Z,20809.81
2022-09-01T08:49:43.306Z,20805.75
2022-09-01T08:52:25.510Z,20815.91
2022-09-01T08:55:02.626Z,20809.81
2022-09-01T08:57:36.151Z,20785.44
2022-09-01T09:00:08.312Z,20779.31
2022-09-01T09:02:52.282Z,20740.69
2022-09-01T09:05:34.034Z,20744.78
2022-09-01T09:08:56.729Z,20807.78
2022-09-01T09:12:00.018Z,20830.16
2022-09-01T09:14:51.796Z,20907.41
2022-09-01T09:17:28.274Z,20933.81
2022-09-01T09:19:56.420Z,20984.66
2022-09-01T09:22:24.528Z,21027.34
2022-09-01T09:25:00.259Z,21090.38
2022-09-01T09:27:33.918Z,21049.72
2022-09-01T09:30:09.324Z,21131.03
2022-09-01T09:33:24.969Z,21155.44
2022-09-01T09:35:42.981Z,21198.13
2022-09-01T09:38:28.830Z,21167.63
2022-09-01T09:41:17.145Z,21224.56
2022-09-01T09:44:00.106Z,21224.56
2022-09-01T09:46:37.652Z,21271.31
2022-09-01T09:49:34.242Z,21269.28
2022-09-01T09:52:18.329Z,21330.28
2022-09-01T09:55:06.852Z,21332.31
2022-09-01T09:57:42.192Z,21344.50
2022-09-01T10:00:24.519Z,21350.59
2022-09-01T10:03:07.888Z,21346.53
2022-09-01T10:05:43.201Z,21356.69
2022-09-01T10:08:16.514Z,21354.66
2022-09-01T10:10:58.193Z,21427.88
2022-09-01T10:13:31.301Z,21411.59
2022-09-01T10:16:09.065Z,21407.53
2022-09-01T10:18:44.839Z,21423.81
2022-09-01T10:21:18.452Z,21383.13
2022-09-01T10:23:46.593Z,21427.88
2022-09-01T10:26:21.519Z,21444.13
2022-09-01T10:28:59.946Z,21486.81
2022-09-01T10:31:32.406Z,21488.88
2022-09-01T10:34:05.900Z,21539.69
2022-09-01T10:36:37.829Z,21531.56
2022-09-01T10:39:12.294Z,21616.97
2022-09-01T10:42:00.574Z,21671.84
2022-09-01T10:44:33.981Z,21724.72
2022-09-01T10:47:14.497Z,21761.31
2022-09-01T10:50:07.461Z,21761.31
2022-09-01T10:53:04.703Z,21814.19
2022-09-01T10:55:48.306Z,21848.75
2022-09-01T11:02:24.975Z,21887.41
2022-09-01T11:05:17.996Z,21893.50
2022-09-01T11:08:15.832Z,21887.41
2022-09-01T11:11:00.290Z,22007.38
2022-09-01T11:13:49.564Z,22157.84
2022-09-01T11:16:53.018Z,22133.44
2022-09-01T11:19:44.458Z,21989.06
2022-09-01T11:22:45.139Z,21903.66
2022-09-01T11:25:43.798Z,21938.22
2022-09-01T11:28:41.829Z,21968.72
2022-09-01T11:31:30.882Z,22021.59
2022-09-01T11:34:23.344Z,21968.72
2022-09-01T11:37:01.308Z,21970.78
2022-09-01T11:39:42.256Z,22015.50
2022-09-01T11:42:22.524Z,21952.47
2022-09-01T11:44:58.704Z,21946.38
2022-09-01T11:47:33.205Z,21928.06
2022-09-01T11:50:05.924Z,21877.22
2022-09-01T11:52:41.388Z,21891.47
2022-09-01T11:55:11.757Z,21958.56
2022-09-01T11:57:42.051Z,21946.38
2022-09-01T12:00:15.089Z,21917.91
2022-09-01T12:02:49.085Z,21926.03
2022-09-01T12:05:32.043Z,21891.47
2022-09-01T12:08:04.823Z,21897.56
2022-09-01T12:10:38.332Z,21865.03
2022-09-01T12:13:10.052Z,21891.47
2022-09-01T12:16:00.626Z,21952.47
2022-09-01T12:18:35.133Z,21970.78
2022-09-01T12:21:07.878Z,21887.41
2022-09-01T12:23:43.009Z,21863.00
2022-09-01T12:26:15.406Z,21875.19
2022-09-01T12:28:44.468Z,21919.94
2022-09-01T12:31:17.989Z,21936.19
2022-09-01T12:33:47.725Z,21891.47
2022-09-01T12:36:26.467Z,21907.72
2022-09-01T12:38:58.267Z,21895.53
2022-09-01T12:41:35.447Z,21930.09
2022-09-01T12:44:30.499Z,21899.59
2022-09-01T12:47:02.724Z,21952.47
2022-09-01T12:49:47.959Z,21881.28
2022-09-01T12:52:28.550Z,21802.00
2022-09-01T12:58:07.974Z,21787.75
2022-09-01T13:00:39.521Z,21830.47
2022-09-01T13:03:14.488Z,21777.59
2022-09-01T13:05:44.376Z,21736.94
2022-09-01T13:08:18.306Z,21749.13
2022-09-01T13:10:52.997Z,21777.59
2022-09-01T13:13:24.052Z,21808.09
2022-09-01T13:15:56.742Z,21911.78
2022-09-01T13:18:27.548Z,21999.25
2022-09-01T13:20:57.065Z,22058.22
2022-09-01T13:23:25.856Z,22111.09
2022-09-01T13:25:55.211Z,22121.25
2022-09-01T13:36:47.243Z,22273.78
2022-09-01T13:39:17.159Z,22259.53
2022-09-01T13:41:48.290Z,22241.22
2022-09-01T13:44:17.373Z,22178.19
2022-09-01T13:47:28.560Z,22166.00
2022-09-01T13:49:44.045Z,22176.16
2022-09-01T13:52:22.590Z,22141.59
2022-09-01T13:54:50.763Z,22098.88
2022-09-01T13:57:20.114Z,22068.38
2022-09-01T13:59:48.150Z,22058.22
2022-09-01T14:02:16.249Z,22078.53
2022-09-01T14:04:44.670Z,22058.22
2022-09-01T14:07:12.860Z,22033.81
2022-09-01T14:09:40.884Z,22039.91
2022-09-01T14:12:09.143Z,22094.81
2022-09-01T14:17:26.538Z,22159.88
2022-09-01T14:19:55.319Z,22145.66
2022-09-01T14:22:23.412Z,22129.38
2022-09-01T14:24:52.219Z,22204.63
2022-09-01T14:27:20.363Z,22241.22
2022-09-01T14:29:54.901Z,22190.38
2022-09-01T14:32:27.086Z,22212.75
2022-09-01T14:34:55.410Z,22178.19
2022-09-01T14:37:24.468Z,22147.69
2022-09-01T14:39:53.596Z,22098.88
2022-09-01T14:42:23.938Z,22080.56
2022-09-01T14:44:53.725Z,22013.47
2022-09-01T14:47:24.711Z,22003.31
2022-09-01T14:49:53.325Z,21980.94
2022-09-01T14:52:22.285Z,21978.91
2022-09-01T14:54:50.899Z,21962.63
2022-09-01T14:57:36.919Z,21978.91
2022-09-01T15:00:13.013Z,21976.88
2022-09-01T15:02:43.994Z,21942.31
2022-09-01T15:05:13.795Z,21915.88
2022-09-01T15:07:43.262Z,21926.03
2022-09-01T15:10:24.975Z,21907.72
2022-09-01T15:12:55.768Z,21958.56
2022-09-01T15:15:27.180Z,21960.59
2022-09-01T15:17:56.110Z,22009.41
2022-09-01T15:20:42.962Z,22013.47
2022-09-01T15:23:11.554Z,22021.59
2022-09-01T15:25:40.067Z,22011.44
2022-09-01T15:28:08.879Z,21999.25
2022-09-01T15:30:40.581Z,22001.28
2022-09-01T15:33:14.703Z,22023.63
2022-09-01T15:35:44.347Z,21976.88
2022-09-01T15:38:17.165Z,21980.94
2022-09-01T15:40:57.696Z,21956.53
2022-09-01T15:43:28.331Z,21917.91
2022-09-01T15:45:59.106Z,21917.91
2022-09-01T15:48:29.365Z,21907.72
2022-09-01T15:51:29.371Z,21897.56
2022-09-01T15:54:02.069Z,21844.69
2022-09-01T15:56:31.202Z,21824.34
2022-09-01T15:59:02.027Z,21826.41
2022-09-01T16:01:36.177Z,21787.75
2022-09-01T16:04:07.882Z,21747.09
2022-09-01T16:06:36.803Z,21741.00
2022-09-01T16:09:06.833Z,21816.22
2022-09-01T16:11:36.669Z,21759.28
2022-09-01T16:14:06.207Z,21759.28
2022-09-01T16:16:54.442Z,21712.53
2022-09-01T16:19:34.424Z,21708.47
2022-09-01T16:22:14.179Z,21635.25
2022-09-01T16:24:45.687Z,21647.47
2022-09-01T16:27:18.350Z,21651.53
2022-09-01T16:29:51.685Z,21653.56
2022-09-01T16:32:23.543Z,21645.44
2022-09-01T16:34:53.347Z,21612.88
2022-09-01T16:37:47.146Z,21604.75
2022-09-01T16:40:34.762Z,21562.06
2022-09-01T16:43:13.365Z,21590.53
2022-09-01T16:45:53.953Z,21578.31
2022-09-01T16:48:34.227Z,21535.63
2022-09-01T16:51:15.056Z,21529.53
2022-09-01T16:54:02.666Z,21488.88
2022-09-01T16:56:37.318Z,21446.16
2022-09-01T16:59:25.165Z,21456.34
2022-09-01T17:02:07.118Z,21409.56
2022-09-01T17:04:46.770Z,21381.09
2022-09-01T17:07:21.113Z,21324.19
2022-09-01T17:10:04.813Z,21379.06
2022-09-01T17:12:42.883Z,21377.03
2022-09-01T17:15:16.055Z,21305.88
2022-09-01T17:17:55.839Z,21299.78
2022-09-01T17:20:30.702Z,21297.75
2022-09-01T17:23:08.622Z,21287.56
2022-09-01T17:25:45.012Z,21287.56
2022-09-01T17:28:20.814Z,21265.22
2022-09-01T17:31:00.347Z,21244.88
2022-09-01T17:33:44.831Z,21236.75
2022-09-01T17:36:27.095Z,21216.41
2022-09-01T17:39:03.700Z,21206.25
2022-09-01T17:41:41.616Z,21198.13
2022-09-01T17:44:21.457Z,21139.16
2022-09-01T17:47:01.778Z,21137.13
2022-09-01T17:49:39.676Z,21179.81
2022-09-01T17:52:19.018Z,21244.88
2022-09-01T17:54:59.964Z,21157.47
2022-09-01T17:57:35.965Z,21129.00
2022-09-01T18:00:09.245Z,21159.50
2022-09-01T18:03:14.813Z,21151.34
2022-09-01T18:05:46.516Z,21179.81
2022-09-01T18:08:38.237Z,21078.16
2022-09-01T18:11:14.170Z,21139.16
2022-09-01T18:13:54.283Z,21043.59
2022-09-01T18:16:29.494Z,21039.53
2022-09-01T18:19:04.637Z,21037.50
2022-09-01T18:21:38.181Z,21037.50
2022-09-01T18:24:21.496Z,20988.72
2022-09-01T18:26:52.917Z,20964.31
2022-09-01T18:29:25.015Z,20990.75
2022-09-01T18:32:13.083Z,20984.66
2022-09-01T18:35:13.331Z,20990.75
2022-09-01T18:38:01.547Z,20937.91
2022-09-01T18:40:43.792Z,20911.47
2022-09-01T18:43:23.690Z,20915.53
2022-09-01T18:46:00.023Z,20878.94
2022-09-01T18:48:50.685Z,20899.28
2022-09-01T18:51:31.462Z,20854.53
2022-09-01T18:54:10.369Z,20832.19
2022-09-01T18:56:49.521Z,20838.28
2022-09-01T19:00:18.930Z,20822.03
2022-09-01T19:03:21.359Z,20848.44
2022-09-01T19:06:12.624Z,20850.47
2022-09-01T19:09:01.555Z,20834.22
2022-09-01T19:11:49.394Z,20820.00
2022-09-01T19:14:30.890Z,20860.66
2022-09-01T19:17:22.280Z,20826.09
2022-09-01T19:19:57.920Z,20822.03
2022-09-01T19:22:40.345Z,20793.56
2022-09-01T19:25:30.092Z,20789.50
2022-09-01T19:28:08.163Z,20803.72
2022-09-01T19:30:42.539Z,20773.22
2022-09-01T19:33:17.427Z,20787.47
2022-09-01T19:35:49.330Z,20801.69
2022-09-01T19:38:27.562Z,20763.06
2022-09-01T19:41:05.299Z,20752.91
2022-09-01T19:43:40.279Z,20728.50
2022-09-01T19:46:22.371Z,20765.09
2022-09-01T19:49:00.183Z,20732.56
2022-09-01T19:51:34.730Z,20754.94
2022-09-01T19:54:10.797Z,20732.56
2022-09-01T19:56:49.783Z,20687.84
2022-09-01T19:59:28.152Z,20691.91
2022-09-01T20:02:00.679Z,20714.28
2022-09-01T20:04:42.888Z,20706.16
2022-09-01T20:07:25.096Z,20726.47
2022-09-01T20:10:13.603Z,20689.88
2022-09-01T20:12:52.837Z,20649.22
2022-09-01T20:15:33.495Z,20665.50
2022-09-01T20:18:08.952Z,20695.97
2022-09-01T20:20:46.970Z,20673.63
2022-09-01T20:23:27.877Z,20675.66
2022-09-01T20:26:04.472Z,20683.78
2022-09-01T20:28:45.630Z,20628.91
2022-09-01T20:31:28.219Z,20635.00
2022-09-01T20:34:05.395Z,20628.91
2022-09-01T20:36:42.865Z,20641.09
2022-09-01T20:39:51.700Z,20610.59
2022-09-01T20:42:32.176Z,20626.88
2022-09-01T20:45:06.502Z,20606.53
2022-09-01T20:47:36.004Z,20578.09
2022-09-01T20:50:12.835Z,20614.66
2022-09-01T20:52:59.741Z,20612.63
2022-09-01T20:55:38.554Z,20580.13
2022-09-01T20:58:16.738Z,20551.66
2022-09-01T21:01:03.195Z,20580.13
2022-09-01T21:03:47.239Z,20569.94
2022-09-01T21:06:28.925Z,20569.94
2022-09-01T21:09:10.279Z,20521.16
2022-09-01T21:11:47.602Z,20547.59
2022-09-01T21:14:43.795Z,20519.13
2022-09-01T21:17:24.441Z,20492.72
2022-09-01T21:20:09.393Z,20515.06
2022-09-01T21:22:37.530Z,20529.28
2022-09-01T21:25:06.858Z,20537.44
2022-09-01T21:27:44.555Z,20521.16
2022-09-01T21:30:15.997Z,20519.13
2022-09-01T21:32:44.851Z,20468.31
2022-09-01T21:35:18.246Z,20531.31
2022-09-01T21:37:46.466Z,20496.78
2022-09-01T21:40:16.462Z,20480.50
2022-09-01T21:42:52.455Z,20488.63
2022-09-01T21:45:22.307Z,20472.38
2022-09-01T21:47:52.512Z,20470.34
2022-09-01T21:50:25.176Z,20474.41
2022-09-01T21:52:53.709Z,20484.56
2022-09-01T21:55:24.904Z,20464.25
2022-09-01T21:57:53.307Z,20387.00
2022-09-01T22:00:25.379Z,20407.34
2022-09-01T22:02:54.235Z,20447.97
2022-09-01T22:05:26.022Z,20431.72
2022-09-01T22:07:56.043Z,20445.94
2022-09-01T22:10:29.938Z,20413.44
2022-09-01T22:13:03.510Z,20411.41
2022-09-01T22:15:32.642Z,20419.53
2022-09-01T22:18:00.882Z,20378.88
2022-09-01T22:20:31.973Z,20362.63
2022-09-01T22:23:02.021Z,20399.19
2022-09-01T22:25:32.694Z,20391.06
2022-09-01T22:28:03.230Z,20391.06
2022-09-01T22:30:31.905Z,20340.25
2022-09-01T22:33:01.182Z,20374.81
2022-09-01T22:35:30.844Z,20364.66
2022-09-01T22:37:58.922Z,20425.63
2022-09-01T22:40:27.084Z,20384.97
2022-09-01T22:42:55.268Z,20370.75
2022-09-01T22:45:23.457Z,20317.91
2022-09-01T22:47:51.552Z,20334.16
2022-09-01T22:50:19.849Z,20344.31
2022-09-01T22:52:49.294Z,20319.94
2022-09-01T22:55:17.881Z,20303.66
2022-09-01T22:57:45.987Z,20342.28
2022-09-01T23:00:15.416Z,20342.28
2022-09-01T23:02:44.815Z,20336.19
2022-09-01T23:05:13.165Z,20305.69
2022-09-01T23:07:41.327Z,20358.56
2022-09-01T23:10:12.001Z,20324.00
2022-09-01T23:12:40.070Z,20307.72
2022-09-01T23:15:10.448Z,20287.41
2022-09-01T23:17:39.678Z,20313.84
2022-09-01T23:20:13.020Z,20301.63
2022-09-01T23:22:42.652Z,20299.59
2022-09-01T23:25:16.319Z,20236.59
2022-09-01T23:27:44.787Z,20258.94
2022-09-01T23:30:16.150Z,20256.91
2022-09-01T23:32:44.817Z,20285.38
2022-09-01T23:35:13.985Z,20273.19
2022-09-01T23:37:44.730Z,20246.75
2022-09-01T23:40:14.528Z,20220.34
2022-09-01T23:42:42.817Z,20258.94
2022-09-01T23:45:12.585Z,20263.00
2022-09-01T23:47:41.025Z,20220.34
2022-09-01T23:50:10.625Z,20191.88
2022-09-01T23:52:39.426Z,20191.88
2022-09-01T23:55:09.443Z,20214.22
2022-09-01T23:57:39.462Z,20224.41
